createdAt,value
2023-05-25T00:01:29.632Z,9.20
2023-05-25T00:03:55.970Z,9.50
2023-05-25T00:06:25.373Z,9.10
2023-05-25T00:08:54.688Z,8.77
2023-05-25T00:11:22.622Z,8.03
2023-05-25T00:13:48.958Z,8.20
2023-05-25T00:16:15.285Z,8.03
2023-05-25T00:18:42.652Z,8.57
2023-05-25T00:21:09.909Z,7.93
2023-05-25T00:23:36.965Z,8.20
2023-05-25T00:26:03.632Z,8.00
2023-05-25T00:28:30.163Z,7.97
2023-05-25T00:30:56.533Z,7.40
2023-05-25T00:33:22.966Z,7.77
2023-05-25T00:35:50.040Z,7.53
2023-05-25T00:38:17.292Z,8.33
2023-05-25T00:48:18.412Z,6.60
2023-05-25T00:50:45.154Z,7.30
2023-05-25T00:53:12.502Z,6.77
2023-05-25T00:55:40.932Z,7.13
2023-05-25T00:58:07.788Z,7.00
2023-05-25T01:00:35.520Z,6.87
2023-05-25T01:03:04.314Z,7.27
2023-05-25T01:05:31.593Z,7.07
2023-05-25T01:07:59.353Z,6.77
2023-05-25T01:10:26.052Z,6.73
2023-05-25T01:12:53.284Z,6.57
2023-05-25T01:15:20.295Z,6.50
2023-05-25T01:17:48.149Z,6.67
2023-05-25T01:20:15.002Z,6.33
2023-05-25T01:22:45.149Z,7.13
2023-05-25T01:25:14.787Z,6.67
2023-05-25T01:27:45.303Z,7.40
2023-05-25T01:30:14.663Z,6.97
2023-05-25T01:32:42.220Z,7.00
2023-05-25T01:35:09.049Z,6.80
2023-05-25T01:37:36.830Z,7.10
2023-05-25T01:40:04.928Z,6.40
2023-05-25T01:42:31.124Z,6.73
2023-05-25T01:44:58.226Z,6.37
2023-05-25T01:47:36.300Z,6.77
2023-05-25T01:50:06.320Z,6.57
2023-05-25T01:52:35.728Z,7.00
2023-05-25T01:55:06.271Z,7.97
2023-05-25T01:57:35.383Z,6.90
2023-05-25T02:00:02.543Z,6.30
2023-05-25T02:02:29.117Z,7.10
2023-05-25T02:04:55.493Z,7.17
2023-05-25T02:07:22.531Z,7.77
2023-05-25T02:09:48.858Z,6.77
2023-05-25T02:12:15.744Z,6.87
2023-05-25T02:14:42.332Z,6.77
2023-05-25T02:17:08.586Z,7.60
2023-05-25T02:19:35.203Z,7.30
2023-05-25T02:22:01.492Z,7.13
2023-05-25T02:24:27.838Z,6.57
2023-05-25T02:26:54.158Z,6.23
2023-05-25T02:29:21.121Z,7.27
2023-05-25T02:31:47.526Z,7.03
2023-05-25T02:34:14.716Z,6.73
2023-05-25T02:36:42.589Z,7.27
2023-05-25T02:39:10.171Z,6.13
2023-05-25T02:41:36.927Z,6.67
2023-05-25T02:44:03.274Z,6.83
2023-05-25T02:46:30.254Z,6.80
2023-05-25T02:48:56.910Z,6.93
2023-05-25T02:51:23.116Z,7.23
2023-05-25T02:53:49.390Z,6.90
2023-05-25T02:56:15.588Z,7.53
2023-05-25T02:58:42.047Z,7.20
2023-05-25T03:01:09.986Z,6.27
2023-05-25T03:03:36.977Z,6.93
2023-05-25T03:06:04.170Z,7.00
2023-05-25T03:08:30.699Z,7.20
2023-05-25T03:10:56.963Z,7.30
2023-05-25T03:13:23.264Z,7.00
2023-05-25T03:15:49.616Z,7.83
2023-05-25T03:18:16.134Z,7.83
2023-05-25T03:20:43.341Z,7.23
2023-05-25T03:23:09.760Z,7.80
2023-05-25T03:25:36.347Z,7.30
2023-05-25T03:28:02.653Z,7.90
2023-05-25T03:30:29.878Z,7.33
2023-05-25T03:32:56.137Z,7.37
2023-05-25T03:35:22.425Z,7.63
2023-05-25T03:37:49.423Z,8.33
2023-05-25T03:40:15.657Z,8.43
2023-05-25T03:42:41.927Z,7.30
2023-05-25T03:45:08.811Z,7.30
2023-05-25T03:47:35.362Z,7.53
2023-05-25T03:50:01.750Z,7.87
2023-05-25T03:52:28.093Z,7.10
2023-05-25T03:54:55.276Z,7.67
2023-05-25T03:57:21.725Z,7.47
2023-05-25T03:59:48.006Z,8.43
2023-05-25T04:02:14.243Z,6.97
2023-05-25T04:04:41.019Z,7.37
2023-05-25T04:07:07.556Z,6.80
2023-05-25T04:09:33.915Z,6.27
2023-05-25T04:12:01.783Z,6.50
2023-05-25T04:14:28.045Z,7.07
2023-05-25T04:16:54.280Z,6.27
2023-05-25T04:19:20.558Z,6.13
2023-05-25T04:21:46.799Z,6.40
2023-05-25T04:24:13.172Z,6.77
2023-05-25T04:26:39.700Z,6.53
2023-05-25T04:29:07.224Z,6.60
2023-05-25T04:31:33.482Z,6.73
2023-05-25T04:34:01.804Z,6.67
2023-05-25T04:36:28.118Z,6.50
2023-05-25T04:38:54.608Z,6.53
2023-05-25T04:41:20.807Z,7.30
2023-05-25T04:44:04.613Z,8.43
2023-05-25T04:46:36.460Z,7.60
2023-05-25T04:49:03.617Z,8.53
2023-05-25T04:51:29.932Z,10.10
2023-05-25T04:53:56.101Z,9.17
2023-05-25T04:56:24.818Z,7.77
2023-05-25T04:58:51.767Z,9.30
2023-05-25T05:01:19.261Z,8.73
2023-05-25T05:03:46.409Z,9.67
2023-05-25T05:06:12.794Z,8.60
2023-05-25T05:08:39.058Z,7.80
2023-05-25T05:11:05.615Z,9.40
2023-05-25T05:13:31.985Z,8.60
2023-05-25T05:15:58.274Z,8.93
2023-05-25T05:18:24.514Z,8.43
2023-05-25T05:20:51.529Z,9.30
2023-05-25T05:23:17.862Z,9.77
2023-05-25T05:25:45.670Z,9.67
2023-05-25T05:28:12.107Z,9.60
2023-05-25T05:30:40.707Z,9.43
2023-05-25T05:33:07.042Z,9.00
2023-05-25T05:35:33.515Z,8.37
2023-05-25T05:38:00.633Z,8.53
2023-05-25T05:40:27.098Z,8.97
2023-05-25T05:42:53.587Z,8.57
2023-05-25T05:45:20.049Z,9.10
2023-05-25T05:47:46.366Z,9.07
2023-05-25T05:50:12.586Z,9.23
2023-05-25T05:52:38.951Z,9.17
2023-05-25T05:55:06.951Z,9.23
2023-05-25T05:57:33.243Z,9.70
2023-05-25T05:59:59.483Z,8.20
2023-05-25T06:02:26.075Z,9.30
2023-05-25T06:04:52.385Z,8.80
2023-05-25T06:07:18.637Z,8.50
2023-05-25T06:09:44.998Z,7.77
2023-05-25T06:12:12.003Z,7.77
2023-05-25T06:14:38.228Z,8.67
2023-05-25T06:17:05.183Z,8.67
2023-05-25T06:19:31.515Z,7.63
2023-05-25T06:21:57.889Z,8.00
2023-05-25T06:24:24.248Z,9.00
2023-05-25T06:26:50.531Z,7.73
2023-05-25T06:29:17.566Z,7.83
2023-05-25T06:31:43.882Z,7.80
2023-05-25T06:34:10.343Z,7.53
2023-05-25T06:36:36.540Z,8.07
2023-05-25T06:39:02.803Z,8.67
2023-05-25T06:41:30.021Z,8.40
2023-05-25T06:43:56.419Z,8.70
2023-05-25T06:46:23.499Z,8.90
2023-05-25T06:48:50.105Z,8.73
2023-05-25T06:51:16.361Z,8.77
2023-05-25T06:53:43.020Z,8.23
2023-05-25T06:56:09.366Z,8.10
2023-05-25T06:58:35.633Z,8.50
2023-05-25T07:01:02.233Z,8.07
2023-05-25T07:03:29.490Z,8.80
2023-05-25T07:05:55.789Z,9.10
2023-05-25T07:08:22.036Z,10.33
2023-05-25T07:10:50.103Z,8.90
2023-05-25T07:13:16.781Z,8.60
2023-05-25T07:15:43.646Z,10.33
2023-05-25T07:18:11.689Z,9.43
2023-05-25T07:20:41.370Z,9.10
2023-05-25T07:23:08.613Z,9.47
2023-05-25T07:25:35.652Z,9.17
2023-05-25T07:28:01.927Z,9.80
2023-05-25T07:30:28.845Z,9.03
2023-05-25T07:32:56.218Z,9.13
2023-05-25T07:35:22.478Z,8.87
2023-05-25T07:37:56.911Z,9.40
2023-05-25T07:40:23.353Z,8.80
2023-05-25T07:42:49.740Z,8.83
2023-05-25T07:45:16.306Z,8.90
2023-05-25T07:47:42.675Z,8.27
2023-05-25T07:50:09.840Z,8.33
2023-05-25T07:52:37.525Z,9.07
2023-05-25T07:55:05.785Z,8.73
2023-05-25T07:57:32.232Z,8.47
2023-05-25T07:59:59.066Z,8.60
2023-05-25T08:02:25.719Z,8.17
2023-05-25T08:04:52.199Z,7.03
2023-05-25T08:07:18.882Z,7.60
2023-05-25T08:09:45.214Z,8.10
2023-05-25T08:12:27.059Z,8.60
2023-05-25T08:14:58.444Z,7.50
2023-05-25T08:17:24.828Z,8.17
2023-05-25T08:19:51.202Z,9.57
2023-05-25T08:22:17.445Z,9.67
2023-05-25T08:24:43.718Z,9.77
2023-05-25T08:27:10.098Z,8.77
2023-05-25T08:29:37.138Z,9.23
2023-05-25T08:32:03.599Z,10.03
2023-05-25T08:34:29.943Z,8.67
2023-05-25T08:36:57.100Z,8.20
2023-05-25T08:39:23.357Z,8.67
2023-05-25T08:41:50.340Z,9.27
2023-05-25T08:44:16.808Z,9.73
2023-05-25T08:46:47.147Z,9.10
2023-05-25T08:49:14.651Z,8.43
2023-05-25T08:51:43.254Z,9.40
2023-05-25T08:54:10.655Z,8.27
2023-05-25T08:56:41.880Z,8.53
2023-05-25T08:59:13.643Z,7.80
2023-05-25T09:01:45.977Z,7.40
2023-05-25T09:04:13.751Z,7.10
2023-05-25T09:06:40.340Z,7.33
2023-05-25T09:09:07.243Z,6.77
2023-05-25T09:11:39.603Z,6.53
2023-05-25T09:14:07.763Z,6.70
2023-05-25T09:16:34.185Z,6.30
2023-05-25T09:19:01.853Z,6.80
2023-05-25T09:21:28.229Z,6.43
2023-05-25T09:23:54.772Z,5.70
2023-05-25T09:26:21.169Z,5.73
2023-05-25T09:28:48.227Z,6.03
2023-05-25T09:31:14.853Z,6.23
2023-05-25T09:33:42.014Z,5.53
2023-05-25T09:36:09.196Z,5.17
2023-05-25T09:38:35.987Z,5.50
2023-05-25T09:41:03.868Z,5.30
2023-05-25T09:43:41.745Z,5.20
2023-05-25T09:46:11.729Z,4.53
2023-05-25T09:48:38.146Z,4.90
2023-05-25T09:51:06.357Z,5.10
2023-05-25T09:53:33.302Z,4.63
2023-05-25T09:56:01.180Z,5.00
2023-05-25T09:58:28.329Z,4.43
2023-05-25T10:00:54.900Z,4.67
2023-05-25T10:03:21.245Z,5.33
2023-05-25T10:05:47.861Z,4.40
2023-05-25T10:08:14.336Z,4.13
2023-05-25T10:10:42.180Z,5.03
2023-05-25T10:13:08.533Z,3.77
2023-05-25T10:15:36.019Z,3.83
2023-05-25T10:18:03.179Z,4.57
2023-05-25T10:20:32.137Z,4.57
2023-05-25T10:23:05.266Z,4.97
2023-05-25T10:25:34.447Z,4.17
2023-05-25T10:28:04.413Z,3.93
2023-05-25T10:30:31.182Z,4.00
2023-05-25T10:32:57.552Z,3.90
2023-05-25T10:35:24.299Z,4.33
2023-05-25T10:37:51.821Z,4.20
2023-05-25T10:40:19.143Z,3.93
2023-05-25T10:42:45.849Z,4.37
2023-05-25T10:45:13.011Z,3.67
2023-05-25T10:47:41.352Z,3.90
2023-05-25T10:50:18.807Z,4.40
2023-05-25T10:52:45.108Z,3.60
2023-05-25T10:55:11.804Z,3.47
2023-05-25T10:57:38.037Z,6.43
2023-05-25T11:00:05.884Z,3.70
2023-05-25T11:02:48.218Z,3.40
2023-05-25T11:05:34.926Z,3.97
2023-05-25T11:08:02.456Z,4.60
2023-05-25T11:10:52.106Z,4.60
2023-05-25T11:13:36.981Z,4.33
2023-05-25T11:16:14.494Z,4.40
2023-05-25T11:18:42.769Z,4.87
2023-05-25T11:21:13.409Z,5.33
2023-05-25T11:23:52.136Z,4.40
2023-05-25T11:26:21.196Z,4.30
2023-05-25T11:28:48.139Z,4.33
2023-05-25T11:31:16.334Z,4.60
2023-05-25T11:33:44.440Z,3.80
2023-05-25T11:36:10.858Z,4.10
2023-05-25T11:38:50.036Z,4.20
2023-05-25T11:41:28.809Z,4.57
2023-05-25T11:43:55.621Z,4.80
2023-05-25T11:46:22.071Z,4.20
2023-05-25T11:48:51.560Z,3.80
2023-05-25T11:51:18.690Z,5.03
2023-05-25T11:53:45.481Z,4.30
2023-05-25T11:56:15.996Z,4.10
2023-05-25T11:58:50.866Z,4.83
2023-05-25T12:01:19.135Z,4.80
2023-05-25T12:03:46.698Z,5.17
2023-05-25T12:06:26.635Z,4.97
2023-05-25T12:08:52.894Z,4.67
2023-05-25T12:11:19.791Z,4.80
2023-05-25T12:13:46.545Z,4.53
2023-05-25T12:16:12.863Z,4.70
2023-05-25T12:18:39.190Z,4.57
2023-05-25T12:21:07.452Z,4.13
2023-05-25T12:23:35.531Z,4.80
2023-05-25T12:26:08.195Z,4.33
2023-05-25T12:28:34.414Z,3.93
2023-05-25T12:31:22.256Z,4.43
2023-05-25T12:34:05.052Z,4.50
2023-05-25T12:36:47.718Z,4.53
2023-05-25T12:39:16.796Z,4.90
2023-05-25T12:41:48.155Z,4.90
2023-05-25T12:44:24.503Z,4.73
2023-05-25T12:46:51.802Z,4.80
2023-05-25T12:49:29.205Z,4.90
2023-05-25T12:51:55.805Z,4.60
2023-05-25T12:54:44.152Z,4.50
2023-05-25T12:57:12.425Z,5.07
2023-05-25T12:59:40.083Z,4.97
2023-05-25T13:02:07.437Z,4.67
2023-05-25T13:04:34.011Z,4.70
2023-05-25T13:07:00.679Z,4.37
2023-05-25T13:09:27.295Z,4.53
2023-05-25T13:11:54.879Z,4.67
2023-05-25T13:14:23.230Z,4.47
2023-05-25T13:16:49.902Z,4.57
2023-05-25T13:19:16.360Z,4.30
2023-05-25T13:21:42.665Z,4.00
2023-05-25T13:24:08.867Z,4.60
2023-05-25T13:26:35.154Z,4.73
2023-05-25T13:29:02.062Z,5.10
2023-05-25T13:31:28.323Z,4.60
2023-05-25T13:33:54.607Z,4.63
2023-05-25T13:36:20.939Z,5.43
2023-05-25T13:38:47.275Z,4.90
2023-05-25T13:41:13.723Z,4.57
2023-05-25T13:43:40.448Z,4.60
2023-05-25T13:46:08.824Z,4.60
2023-05-25T13:48:38.160Z,4.30
2023-05-25T13:51:04.660Z,4.33
2023-05-25T13:53:31.235Z,4.13
2023-05-25T13:55:57.460Z,4.70
2023-05-25T13:58:24.176Z,4.30
2023-05-25T14:00:50.767Z,4.40
2023-05-25T14:03:17.803Z,4.47
2023-05-25T14:05:44.345Z,3.87
2023-05-25T14:08:12.035Z,3.90
2023-05-25T14:10:38.575Z,4.20
2023-05-25T14:13:04.865Z,4.13
2023-05-25T14:15:31.215Z,4.87
2023-05-25T14:17:57.733Z,4.20
2023-05-25T14:20:25.661Z,4.27
2023-05-25T14:22:52.265Z,4.20
2023-05-25T14:25:18.610Z,4.10
2023-05-25T14:27:45.102Z,5.03
2023-05-25T14:30:11.906Z,4.10
2023-05-25T14:32:38.256Z,4.30
2023-05-25T14:35:05.417Z,4.73
2023-05-25T14:37:32.288Z,4.10
2023-05-25T14:39:59.874Z,4.20
2023-05-25T14:42:26.334Z,3.97
2023-05-25T14:44:52.704Z,4.37
2023-05-25T14:47:18.965Z,4.10
2023-05-25T14:49:45.222Z,4.00
2023-05-25T14:52:11.703Z,4.30
2023-05-25T14:54:43.844Z,4.00
2023-05-25T14:57:10.534Z,3.87
2023-05-25T14:59:36.947Z,4.40
2023-05-25T15:02:03.628Z,4.23
2023-05-25T15:04:30.921Z,4.40
2023-05-25T15:06:57.540Z,3.80
2023-05-25T15:09:23.807Z,3.90
2023-05-25T15:11:50.826Z,4.10
2023-05-25T15:14:17.154Z,4.70
2023-05-25T15:16:44.312Z,4.23
2023-05-25T15:19:12.638Z,4.10
2023-05-25T15:21:40.228Z,5.37
2023-05-25T15:24:06.672Z,4.37
2023-05-25T15:26:32.892Z,4.80
2023-05-25T15:28:59.958Z,4.60
2023-05-25T15:31:26.244Z,4.00
2023-05-25T15:33:58.209Z,4.33
2023-05-25T15:36:24.756Z,4.20
2023-05-25T15:38:50.949Z,4.33
2023-05-25T15:41:17.779Z,4.50
2023-05-25T15:43:50.865Z,4.50
2023-05-25T15:46:17.807Z,4.73
2023-05-25T15:48:44.157Z,4.27
2023-05-25T15:51:10.544Z,4.60
2023-05-25T15:53:36.751Z,4.87
2023-05-25T15:56:03.014Z,4.63
2023-05-25T15:58:30.747Z,4.43
2023-05-25T16:00:56.986Z,4.33
2023-05-25T16:03:24.057Z,5.17
2023-05-25T16:05:50.468Z,4.03
2023-05-25T16:08:16.902Z,4.33
2023-05-25T16:10:43.217Z,4.97
2023-05-25T16:13:09.739Z,4.03
2023-05-25T16:15:36.174Z,4.33
2023-05-25T16:18:02.523Z,4.80
2023-05-25T16:20:29.720Z,3.93
2023-05-25T16:22:56.085Z,4.23
2023-05-25T16:25:22.625Z,4.67
2023-05-25T16:27:49.078Z,4.93
2023-05-25T16:30:17.871Z,4.53
2023-05-25T16:32:44.351Z,4.00
2023-05-25T16:35:13.100Z,3.90
2023-05-25T16:37:40.036Z,4.53
2023-05-25T16:40:07.951Z,4.20
2023-05-25T16:42:34.539Z,4.27
2023-05-25T16:45:00.780Z,4.17
2023-05-25T16:47:27.032Z,4.43
2023-05-25T16:49:53.464Z,4.13
2023-05-25T16:52:19.859Z,4.30
2023-05-25T16:54:46.823Z,3.90
2023-05-25T16:57:13.026Z,3.67
2023-05-25T16:59:39.483Z,4.40
2023-05-25T17:02:06.465Z,4.07
2023-05-25T17:04:32.791Z,4.40
2023-05-25T17:06:59.074Z,4.30
2023-05-25T17:09:25.381Z,4.00
2023-05-25T17:11:53.694Z,3.70
2023-05-25T17:14:20.885Z,3.60
2023-05-25T17:16:47.391Z,4.03
2023-05-25T17:19:14.522Z,3.77
2023-05-25T17:21:41.240Z,3.93
2023-05-25T17:24:07.939Z,4.03
2023-05-25T17:26:34.245Z,4.10
2023-05-25T17:29:01.417Z,3.93
2023-05-25T17:31:28.223Z,3.50
2023-05-25T17:33:54.883Z,3.77
2023-05-25T17:36:22.293Z,4.30
2023-05-25T17:38:48.757Z,3.90
2023-05-25T17:41:15.183Z,4.17
2023-05-25T17:43:41.715Z,3.50
2023-05-25T17:46:08.833Z,5.23
2023-05-25T17:48:36.038Z,4.10
2023-05-25T17:51:02.556Z,3.70
2023-05-25T17:53:28.875Z,4.00
2023-05-25T17:55:55.368Z,3.63
2023-05-25T17:58:21.725Z,3.90
2023-05-25T18:00:48.181Z,4.40
2023-05-25T18:03:15.312Z,4.07
2023-05-25T18:05:41.681Z,4.20
2023-05-25T18:08:08.027Z,3.87
2023-05-25T18:10:34.926Z,4.13
2023-05-25T18:13:01.184Z,3.80
2023-05-25T18:15:27.567Z,3.60
2023-05-25T18:17:54.146Z,4.27
2023-05-25T18:20:21.395Z,4.10
2023-05-25T18:22:47.861Z,4.70
2023-05-25T18:25:14.158Z,4.40
2023-05-25T18:27:40.444Z,3.70
2023-05-25T18:30:07.973Z,4.10
2023-05-25T18:32:34.453Z,3.73
2023-05-25T18:35:00.836Z,3.93
2023-05-25T18:37:28.628Z,4.13
2023-05-25T18:39:54.862Z,3.43
2023-05-25T18:42:21.162Z,3.30
2023-05-25T18:44:47.441Z,3.70
2023-05-25T18:47:13.853Z,3.30
2023-05-25T18:49:40.233Z,3.40
2023-05-25T18:52:07.588Z,3.70
2023-05-25T18:54:34.742Z,3.90
2023-05-25T18:57:02.277Z,3.80
2023-05-25T18:59:28.820Z,3.40
2023-05-25T19:01:55.350Z,3.63
2023-05-25T19:04:21.705Z,3.40
2023-05-25T19:06:48.242Z,4.17
2023-05-25T19:09:14.491Z,3.93
2023-05-25T19:11:41.437Z,3.77
2023-05-25T19:14:07.732Z,3.57
2023-05-25T19:16:34.480Z,4.50
2023-05-25T19:19:00.835Z,4.00
2023-05-25T19:21:27.207Z,4.03
2023-05-25T19:23:54.051Z,4.13
2023-05-25T19:26:20.373Z,4.67
2023-05-25T19:28:47.349Z,4.07
2023-05-25T19:31:13.654Z,3.80
2023-05-25T19:33:40.221Z,4.00
2023-05-25T19:36:06.714Z,4.10
2023-05-25T19:38:41.107Z,4.60
2023-05-25T19:41:08.546Z,4.17
2023-05-25T19:43:35.313Z,3.83
2023-05-25T19:46:02.306Z,5.27
2023-05-25T19:48:28.736Z,4.60
2023-05-25T19:50:55.083Z,4.13
2023-05-25T19:53:21.392Z,4.53
2023-05-25T19:55:47.761Z,4.70
2023-05-25T19:58:14.021Z,4.60
2023-05-25T20:00:40.524Z,4.43
2023-05-25T20:03:07.540Z,4.57
2023-05-25T20:05:33.857Z,4.07
2023-05-25T20:08:00.172Z,4.53
2023-05-25T20:10:26.643Z,4.17
2023-05-25T20:12:52.908Z,4.30
2023-05-25T20:15:19.382Z,4.33
2023-05-25T20:17:45.712Z,4.50
2023-05-25T20:20:12.787Z,4.30
2023-05-25T20:22:39.097Z,4.23
2023-05-25T20:25:06.235Z,4.13
2023-05-25T20:27:32.555Z,4.60
2023-05-25T20:29:58.806Z,4.53
2023-05-25T20:32:25.232Z,4.43
2023-05-25T20:34:51.442Z,4.70
2023-05-25T20:37:18.306Z,4.50
2023-05-25T20:39:45.059Z,4.43
2023-05-25T20:42:13.202Z,4.43
2023-05-25T20:44:39.700Z,4.60
2023-05-25T20:47:06.067Z,4.50
2023-05-25T20:49:32.316Z,4.90
2023-05-25T20:51:58.612Z,4.83
2023-05-25T20:54:25.492Z,4.80
2023-05-25T20:56:52.641Z,4.80
2023-05-25T20:59:18.843Z,5.33
2023-05-25T21:01:45.221Z,4.80
2023-05-25T21:04:11.611Z,5.00
2023-05-25T21:06:37.861Z,5.00
2023-05-25T21:09:04.226Z,5.20
2023-05-25T21:11:31.090Z,4.83
2023-05-25T21:13:57.317Z,4.60
2023-05-25T21:16:23.665Z,4.67
2023-05-25T21:18:50.179Z,4.67
2023-05-25T21:21:16.847Z,5.07
2023-05-25T21:23:43.097Z,4.73
2023-05-25T21:26:09.496Z,5.20
2023-05-25T21:28:36.441Z,5.87
2023-05-25T21:31:02.784Z,5.40
2023-05-25T21:33:30.174Z,5.90
2023-05-25T21:35:56.438Z,5.53
2023-05-25T21:38:22.670Z,6.80
2023-05-25T21:40:48.960Z,8.40
2023-05-25T21:43:15.208Z,7.17
2023-05-25T21:45:42.172Z,7.57
2023-05-25T21:48:08.486Z,7.13
2023-05-25T21:50:35.821Z,6.83
2023-05-25T21:53:02.085Z,6.30
2023-05-25T21:55:28.313Z,6.90
2023-05-25T21:57:54.691Z,7.50
2023-05-25T22:00:22.678Z,7.00
2023-05-25T22:02:51.641Z,7.37
2023-05-25T22:05:18.120Z,6.73
2023-05-25T22:07:44.324Z,7.30
2023-05-25T22:10:10.923Z,6.67
2023-05-25T22:12:37.220Z,6.90
2023-05-25T22:15:04.559Z,7.10
2023-05-25T22:17:30.843Z,7.40
2023-05-25T22:20:07.242Z,7.37
2023-05-25T22:22:34.806Z,7.20
2023-05-25T22:25:01.283Z,6.60
2023-05-25T22:27:27.763Z,7.37
2023-05-25T22:29:54.014Z,7.23
2023-05-25T22:32:20.275Z,7.43
2023-05-25T22:34:47.038Z,6.13
2023-05-25T22:37:14.145Z,6.03
2023-05-25T22:39:40.377Z,6.83
2023-05-25T22:42:06.702Z,7.43
2023-05-25T22:44:34.318Z,6.70
2023-05-25T22:47:00.565Z,6.40
2023-05-25T22:49:26.817Z,6.23
2023-05-25T22:51:53.019Z,5.97
2023-05-25T22:54:19.971Z,6.60
2023-05-25T22:56:46.250Z,6.73
2023-05-25T22:59:13.045Z,6.37
2023-05-25T23:01:39.290Z,6.27
2023-05-25T23:04:05.698Z,6.40
2023-05-25T23:06:32.181Z,6.80
2023-05-25T23:08:58.446Z,6.33
2023-05-25T23:11:26.346Z,6.87
2023-05-25T23:13:53.903Z,6.43
2023-05-25T23:16:20.297Z,6.20
2023-05-25T23:18:46.615Z,6.67
2023-05-25T23:21:12.861Z,6.23
2023-05-25T23:23:39.047Z,6.57
2023-05-25T23:26:05.404Z,6.70
2023-05-25T23:28:32.327Z,5.80
2023-05-25T23:30:58.550Z,6.73
2023-05-25T23:33:24.879Z,5.93
2023-05-25T23:35:51.216Z,6.03
2023-05-25T23:38:17.572Z,6.10
2023-05-25T23:40:44.048Z,6.47
2023-05-25T23:43:10.385Z,5.80
2023-05-25T23:45:37.262Z,6.20
2023-05-25T23:48:03.734Z,6.60
2023-05-25T23:50:30.115Z,6.07
2023-05-25T23:52:56.417Z,6.20
2023-05-25T23:55:22.983Z,6.00
2023-05-25T23:57:49.367Z,6.03
